createdAt,value
2022-10-13T00:02:00.666Z,24.17
2022-10-13T00:04:43.431Z,24.18
2022-10-13T00:07:25.622Z,24.20
2022-10-13T00:10:14.402Z,24.19
2022-10-13T00:13:03.690Z,24.21
2022-10-13T00:15:50.418Z,24.15
2022-10-13T00:18:41.702Z,24.13
2022-10-13T00:21:26.403Z,24.12
2022-10-13T00:24:18.712Z,24.10
2022-10-13T00:27:01.402Z,24.04
2022-10-13T00:29:50.682Z,24.01
2022-10-13T00:32:32.419Z,24.08
2022-10-13T00:35:20.700Z,24.09
2022-10-13T00:38:03.443Z,24.03
2022-10-13T00:40:57.726Z,24.22
2022-10-13T00:44:07.476Z,24.32
2022-10-13T00:46:55.724Z,24.34
2022-10-13T00:49:39.488Z,24.33
2022-10-13T00:52:29.707Z,24.41
2022-10-13T00:55:14.469Z,24.41
2022-10-13T00:58:05.535Z,24.44
2022-10-13T01:00:49.466Z,24.46
2022-10-13T01:03:38.686Z,24.41
2022-10-13T01:06:23.833Z,24.50
2022-10-13T01:09:18.280Z,24.69
2022-10-13T01:12:21.761Z,24.62
2022-10-13T01:15:22.923Z,24.70
2022-10-13T01:18:42.455Z,24.80
2022-10-13T01:21:53.310Z,24.76
2022-10-13T01:24:53.408Z,24.83
2022-10-13T01:28:00.315Z,24.90
2022-10-13T01:31:16.447Z,24.78
2022-10-13T01:34:25.688Z,24.91
2022-10-13T01:37:31.403Z,24.96
2022-10-13T01:40:41.327Z,24.96
2022-10-13T01:43:39.715Z,25.15
2022-10-13T01:46:32.686Z,25.07
2022-10-13T01:49:26.398Z,25.02
2022-10-13T01:52:14.232Z,25.00
2022-10-13T01:55:03.416Z,25.18
2022-10-13T01:57:55.405Z,25.24
2022-10-13T02:00:47.613Z,25.20
2022-10-13T02:03:51.406Z,25.32
2022-10-13T02:06:51.713Z,25.29
2022-10-13T02:09:47.417Z,25.39
2022-10-13T02:12:44.670Z,25.50
2022-10-13T02:15:40.404Z,25.62
2022-10-13T02:18:26.671Z,25.70
2022-10-13T02:21:15.751Z,25.75
2022-10-13T02:23:59.680Z,25.82
2022-10-13T02:26:50.378Z,25.82
2022-10-13T02:29:33.843Z,25.79
2022-10-13T02:32:22.579Z,25.68
2022-10-13T02:35:04.653Z,26.10
2022-10-13T02:37:53.469Z,26.24
2022-10-13T02:40:35.693Z,26.46
2022-10-13T02:43:24.408Z,26.15
2022-10-13T02:46:06.685Z,26.24
2022-10-13T02:48:56.405Z,26.25
2022-10-13T02:51:40.313Z,26.56
2022-10-13T02:54:29.485Z,26.63
2022-10-13T02:57:11.677Z,26.59
2022-10-13T03:00:01.480Z,26.78
2022-10-13T03:02:43.679Z,27.02
2022-10-13T03:05:32.375Z,26.93
2022-10-13T03:08:14.743Z,26.98
2022-10-13T03:11:03.461Z,27.19
2022-10-13T03:13:45.680Z,27.35
2022-10-13T03:16:34.462Z,27.24
2022-10-13T03:19:18.695Z,27.40
2022-10-13T03:22:07.388Z,27.42
2022-10-13T03:24:50.685Z,27.56
2022-10-13T03:27:39.470Z,27.44
2022-10-13T03:30:21.696Z,28.00
2022-10-13T03:33:10.410Z,27.62
2022-10-13T03:35:52.677Z,27.35
2022-10-13T03:38:42.449Z,27.48
2022-10-13T03:41:26.692Z,27.64
2022-10-13T03:44:15.446Z,27.96
2022-10-13T03:46:57.754Z,27.68
2022-10-13T03:49:46.392Z,27.99
2022-10-13T03:52:28.684Z,28.03
2022-10-13T03:55:17.405Z,28.31
2022-10-13T03:57:59.796Z,28.68
2022-10-13T04:00:48.405Z,29.13
2022-10-13T04:03:30.661Z,29.12
2022-10-13T04:06:19.481Z,29.85
2022-10-13T04:09:14.253Z,30.05
2022-10-13T04:12:03.421Z,30.55
2022-10-13T04:14:45.688Z,30.77
2022-10-13T04:21:33.474Z,31.41
2022-10-13T04:24:22.839Z,31.30
2022-10-13T04:27:05.386Z,31.09
2022-10-13T04:29:54.391Z,31.24
2022-10-13T04:32:36.699Z,31.33
2022-10-13T04:35:26.395Z,32.05
2022-10-13T04:38:08.674Z,31.94
2022-10-13T04:40:58.394Z,31.75
2022-10-13T04:43:41.669Z,32.17
2022-10-13T04:46:35.374Z,31.83
2022-10-13T04:49:17.671Z,31.64
2022-10-13T04:52:06.456Z,31.76
2022-10-13T04:54:48.673Z,32.69
2022-10-13T04:57:37.403Z,32.70
2022-10-13T05:00:20.677Z,32.05
2022-10-13T05:03:02.381Z,32.63
2022-10-13T05:05:44.706Z,32.28
2022-10-13T05:08:33.460Z,32.03
2022-10-13T05:11:15.793Z,32.70
2022-10-13T05:14:04.463Z,32.73
2022-10-13T05:16:52.748Z,33.05
2022-10-13T05:19:35.616Z,32.82
2022-10-13T05:22:30.250Z,32.58
2022-10-13T05:25:19.412Z,32.65
2022-10-13T05:28:01.693Z,32.38
2022-10-13T05:30:50.411Z,33.01
2022-10-13T05:33:32.735Z,32.89
2022-10-13T05:36:26.449Z,32.31
2022-10-13T05:39:18.763Z,32.77
2022-10-13T05:42:06.869Z,32.87
2022-10-13T05:44:49.389Z,33.37
2022-10-13T05:47:39.458Z,33.49
2022-10-13T05:50:21.763Z,33.68
2022-10-13T05:53:10.383Z,32.93
2022-10-13T05:55:52.916Z,32.93
2022-10-13T05:58:51.501Z,32.71
2022-10-13T06:01:38.787Z,32.87
2022-10-13T06:04:32.445Z,33.25
2022-10-13T06:07:16.680Z,32.66
2022-10-13T06:10:06.461Z,33.48
2022-10-13T06:12:48.680Z,33.26
2022-10-13T06:15:37.717Z,33.39
2022-10-13T06:18:19.690Z,32.83
2022-10-13T06:21:08.392Z,33.00
2022-10-13T06:23:57.449Z,33.15
2022-10-13T06:26:39.572Z,33.18
2022-10-13T06:29:28.445Z,33.41
2022-10-13T06:32:16.689Z,33.79
2022-10-13T06:34:58.460Z,33.43
2022-10-13T06:37:49.616Z,33.32
2022-10-13T06:40:32.649Z,33.66
2022-10-13T06:43:20.696Z,33.83
2022-10-13T06:46:07.409Z,33.87
2022-10-13T06:48:53.849Z,34.06
2022-10-13T06:51:44.411Z,33.20
2022-10-13T06:54:26.714Z,33.63
2022-10-13T06:57:15.408Z,33.34
2022-10-13T07:00:04.453Z,33.38
2022-10-13T07:02:46.704Z,33.53
2022-10-13T07:05:35.389Z,33.41
2022-10-13T07:08:17.704Z,33.53
2022-10-13T07:11:06.444Z,33.64
2022-10-13T07:13:49.821Z,33.18
2022-10-13T07:16:38.462Z,33.13
2022-10-13T07:19:20.721Z,33.44
2022-10-13T07:22:15.436Z,33.44
2022-10-13T07:25:03.660Z,32.81
2022-10-13T07:27:48.377Z,33.38
2022-10-13T07:30:37.325Z,33.18
2022-10-13T07:33:26.284Z,33.08
2022-10-13T07:36:15.296Z,33.32
2022-10-13T07:39:06.377Z,33.37
2022-10-13T07:41:51.036Z,33.31
2022-10-13T07:44:41.765Z,32.88
2022-10-13T07:47:31.714Z,33.33
2022-10-13T07:50:14.425Z,33.20
2022-10-13T07:53:03.348Z,32.58
2022-10-13T07:55:45.381Z,32.82
2022-10-13T07:58:33.635Z,33.16
2022-10-13T08:01:16.511Z,32.94
2022-10-13T08:04:04.749Z,32.89
2022-10-13T08:06:47.465Z,33.01
2022-10-13T08:09:29.698Z,32.91
2022-10-13T08:12:20.556Z,33.01
2022-10-13T08:15:08.720Z,32.97
2022-10-13T08:17:50.376Z,33.25
2022-10-13T08:20:41.114Z,32.79
2022-10-13T08:23:33.388Z,32.96
2022-10-13T08:26:23.436Z,32.75
2022-10-13T08:29:27.502Z,32.88
2022-10-13T08:32:15.684Z,33.00
2022-10-13T08:34:58.401Z,32.67
2022-10-13T08:37:40.578Z,32.87
2022-10-13T08:40:34.686Z,32.89
2022-10-13T08:43:22.548Z,32.52
2022-10-13T08:46:15.718Z,33.01
2022-10-13T08:49:06.848Z,33.00
2022-10-13T08:51:49.452Z,32.69
2022-10-13T08:54:37.683Z,32.94
2022-10-13T08:57:20.591Z,32.76
2022-10-13T09:00:02.611Z,32.55
2022-10-13T09:02:56.528Z,32.85
2022-10-13T09:05:53.683Z,32.84
2022-10-13T09:08:41.449Z,32.66
2022-10-13T09:11:29.707Z,32.60
2022-10-13T09:14:15.385Z,32.67
2022-10-13T09:17:19.890Z,32.37
2022-10-13T09:20:13.415Z,32.95
2022-10-13T09:23:28.370Z,32.85
2022-10-13T09:26:26.690Z,32.90
2022-10-13T09:29:17.501Z,32.95
2022-10-13T09:32:30.682Z,32.83
2022-10-13T09:35:30.388Z,32.99
2022-10-13T09:38:19.203Z,33.03
2022-10-13T09:41:35.487Z,32.92
2022-10-13T09:44:30.074Z,32.76
2022-10-13T09:47:19.395Z,32.53
2022-10-13T09:50:13.693Z,32.53
2022-10-13T09:52:57.386Z,32.82
2022-10-13T09:55:46.399Z,32.73
2022-10-13T09:58:37.709Z,32.85
2022-10-13T10:01:32.390Z,32.47
2022-10-13T10:04:22.700Z,32.72
2022-10-13T10:07:20.628Z,32.49
2022-10-13T10:10:11.087Z,32.54
2022-10-13T10:13:00.373Z,32.55
2022-10-13T10:15:50.678Z,32.42
2022-10-13T10:19:27.377Z,32.39
2022-10-13T10:22:16.673Z,32.45
2022-10-13T10:25:33.460Z,32.15
2022-10-13T10:28:45.766Z,32.29
2022-10-13T10:31:46.396Z,32.46
2022-10-13T10:34:37.680Z,32.28
2022-10-13T10:37:54.403Z,32.28
2022-10-13T10:40:37.077Z,32.22
2022-10-13T10:43:34.462Z,31.96
2022-10-13T10:46:27.676Z,32.14
2022-10-13T10:49:32.423Z,31.88
2022-10-13T10:52:18.672Z,31.85
2022-10-13T10:55:34.451Z,31.93
2022-10-13T10:59:15.649Z,31.95
2022-10-13T11:02:16.443Z,31.91
2022-10-13T11:05:06.078Z,31.90
2022-10-13T11:07:55.408Z,31.86
2022-10-13T11:10:37.676Z,31.68
2022-10-13T11:13:28.528Z,31.65
2022-10-13T11:16:51.846Z,31.91
2022-10-13T11:19:48.393Z,31.88
2022-10-13T11:22:45.233Z,31.65
2022-10-13T11:25:47.391Z,31.73
2022-10-13T11:28:29.680Z,31.57
2022-10-13T11:31:21.376Z,31.58
2022-10-13T11:34:08.675Z,31.44
2022-10-13T11:37:03.387Z,31.32
2022-10-13T11:40:08.789Z,31.31
2022-10-13T11:43:16.425Z,31.37
2022-10-13T11:46:10.060Z,31.25
2022-10-13T11:49:39.408Z,31.25
2022-10-13T11:52:47.666Z,31.15
2022-10-13T11:56:02.376Z,30.96
2022-10-13T11:58:57.371Z,30.87
2022-10-13T12:01:46.048Z,30.83
2022-10-13T12:04:37.400Z,30.83
2022-10-13T12:07:30.681Z,30.69
2022-10-13T12:10:16.895Z,30.69
2022-10-13T12:13:05.854Z,30.65
2022-10-13T12:15:52.427Z,30.61
2022-10-13T12:18:42.647Z,30.59
2022-10-13T12:21:29.383Z,30.50
2022-10-13T12:24:27.365Z,30.51
2022-10-13T12:27:28.396Z,30.38
2022-10-13T12:30:12.661Z,30.45
2022-10-13T12:33:04.562Z,30.37
2022-10-13T12:35:46.707Z,30.29
2022-10-13T12:38:35.366Z,30.25
2022-10-13T12:41:26.271Z,30.19
2022-10-13T12:44:22.266Z,30.09
2022-10-13T12:47:18.515Z,30.05
2022-10-13T12:50:37.423Z,30.02
2022-10-13T12:53:23.007Z,29.90
2022-10-13T12:56:13.407Z,29.91
2022-10-13T12:59:02.410Z,29.97
2022-10-13T13:01:51.692Z,29.83
2022-10-13T13:04:47.396Z,29.84
2022-10-13T13:07:38.093Z,29.73
2022-10-13T13:10:36.697Z,29.54
2022-10-13T13:13:23.675Z,29.55
2022-10-13T13:16:23.420Z,29.52
2022-10-13T13:19:05.831Z,29.44
2022-10-13T13:21:54.449Z,29.37
2022-10-13T13:24:50.292Z,29.32
2022-10-13T13:27:47.371Z,29.32
2022-10-13T13:30:31.671Z,29.27
2022-10-13T13:33:20.440Z,29.31
2022-10-13T13:36:06.649Z,29.28
2022-10-13T13:38:59.458Z,29.19
2022-10-13T13:41:41.825Z,29.14
2022-10-13T13:44:31.388Z,29.14
2022-10-13T13:47:27.725Z,29.09
2022-10-13T13:50:31.371Z,29.07
2022-10-13T13:53:21.383Z,28.91
2022-10-13T13:56:10.755Z,28.84
2022-10-13T13:58:53.461Z,28.79
2022-10-13T14:01:35.611Z,28.73
2022-10-13T14:04:24.532Z,28.62
2022-10-13T14:07:12.692Z,28.55
2022-10-13T14:09:59.277Z,28.51
2022-10-13T14:12:50.676Z,28.42
2022-10-13T14:15:33.680Z,28.48
2022-10-13T14:18:21.652Z,28.57
2022-10-13T14:21:04.441Z,28.54
2022-10-13T14:23:59.308Z,28.58
2022-10-13T14:26:48.376Z,28.58
2022-10-13T14:29:32.698Z,28.53
2022-10-13T14:32:21.679Z,28.56
2022-10-13T14:35:10.360Z,28.54
2022-10-13T14:37:52.569Z,28.43
2022-10-13T14:40:41.377Z,28.42
2022-10-13T14:43:23.585Z,28.39
2022-10-13T14:46:17.391Z,28.42
2022-10-13T14:49:06.644Z,28.43
2022-10-13T14:51:51.378Z,28.37
2022-10-13T14:54:44.636Z,28.31
2022-10-13T14:57:28.394Z,28.29
2022-10-13T15:00:17.645Z,28.28
2022-10-13T15:02:59.447Z,28.22
2022-10-13T15:05:47.666Z,28.21
2022-10-13T15:08:32.381Z,28.06
2022-10-13T15:11:22.404Z,28.08
2022-10-13T15:14:04.887Z,28.05
2022-10-13T15:16:53.772Z,28.05
2022-10-13T15:19:36.652Z,28.03
2022-10-13T15:22:25.389Z,28.04
2022-10-13T15:25:14.656Z,27.96
2022-10-13T15:27:56.382Z,27.88
2022-10-13T15:30:45.386Z,27.82
2022-10-13T15:33:37.398Z,27.76
2022-10-13T15:36:26.749Z,27.75
2022-10-13T15:39:09.443Z,27.68
2022-10-13T15:41:57.685Z,27.67
2022-10-13T15:45:08.174Z,27.62
2022-10-13T15:47:49.691Z,27.61
2022-10-13T15:50:33.457Z,27.53
2022-10-13T15:53:21.653Z,27.48
2022-10-13T15:56:03.424Z,27.47
2022-10-13T15:58:51.736Z,27.43
2022-10-13T16:01:33.396Z,27.39
2022-10-13T16:04:21.664Z,27.36
2022-10-13T16:07:04.380Z,27.31
2022-10-13T16:09:53.367Z,27.25
2022-10-13T16:12:38.742Z,27.16
2022-10-13T16:15:27.387Z,27.09
2022-10-13T16:18:16.374Z,27.09
2022-10-13T16:21:05.688Z,27.00
2022-10-13T16:24:01.379Z,26.98
2022-10-13T16:26:49.638Z,27.01
2022-10-13T16:29:32.373Z,26.97
2022-10-13T16:32:22.045Z,26.96
2022-10-13T16:35:06.377Z,26.88
2022-10-13T16:37:55.917Z,26.99
2022-10-13T16:40:38.379Z,27.02
2022-10-13T16:43:27.787Z,27.10
2022-10-13T16:46:12.383Z,27.10
2022-10-13T16:49:00.769Z,27.11
2022-10-13T16:51:43.355Z,27.08
2022-10-13T16:54:27.129Z,26.97
2022-10-13T16:57:17.424Z,26.99
2022-10-13T17:00:05.735Z,27.00
2022-10-13T17:02:47.353Z,26.94
2022-10-13T17:05:29.556Z,26.87
2022-10-13T17:08:18.480Z,26.78
2022-10-13T17:11:04.224Z,26.87
2022-10-13T17:13:53.379Z,26.79
2022-10-13T17:16:38.632Z,26.85
2022-10-13T17:19:27.387Z,26.83
2022-10-13T17:22:09.556Z,26.81
2022-10-13T17:24:58.336Z,26.84
2022-10-13T17:27:40.697Z,26.79
2022-10-13T17:30:29.372Z,26.71
2022-10-13T17:33:18.636Z,26.70
2022-10-13T17:36:01.770Z,26.54
2022-10-13T17:38:44.206Z,26.62
2022-10-13T17:41:33.365Z,26.51
2022-10-13T17:44:21.744Z,26.51
2022-10-13T17:47:03.383Z,26.44
2022-10-13T17:49:52.367Z,26.42
2022-10-13T17:52:35.669Z,26.35
2022-10-13T17:55:24.377Z,26.46
2022-10-13T17:58:13.366Z,26.52
2022-10-13T18:01:19.447Z,26.51
2022-10-13T18:04:04.339Z,26.35
2022-10-13T18:06:47.244Z,26.35
2022-10-13T18:09:37.371Z,26.32
2022-10-13T18:12:26.392Z,26.42
2022-10-13T18:15:08.825Z,26.57
2022-10-13T18:17:58.379Z,26.49
2022-10-13T18:20:50.369Z,26.27
2022-10-13T18:23:47.205Z,26.27
2022-10-13T18:26:39.372Z,26.20
2022-10-13T18:29:21.691Z,26.17
2022-10-13T18:32:11.353Z,26.11
2022-10-13T18:35:00.343Z,26.11
2022-10-13T18:37:51.370Z,26.14
2022-10-13T18:40:36.339Z,26.11
2022-10-13T18:43:18.689Z,26.06
2022-10-13T18:46:07.358Z,26.00
2022-10-13T18:48:49.591Z,25.97
2022-10-13T18:51:41.367Z,25.96
2022-10-13T18:54:23.780Z,26.00
2022-10-13T18:57:12.354Z,25.92
2022-10-13T18:59:55.518Z,25.95
2022-10-13T19:02:44.411Z,25.91
2022-10-13T19:05:26.708Z,25.91
2022-10-13T19:08:17.337Z,25.92
2022-10-13T19:10:59.959Z,25.88
2022-10-13T19:13:48.333Z,25.86
2022-10-13T19:16:38.657Z,25.88
2022-10-13T19:19:21.332Z,26.01
2022-10-13T19:22:05.847Z,26.17
2022-10-13T19:24:54.347Z,26.24
2022-10-13T19:27:36.559Z,26.41
2022-10-13T19:30:26.414Z,26.42
2022-10-13T19:33:16.648Z,26.52
2022-10-13T19:35:59.369Z,26.50
2022-10-13T19:38:47.982Z,26.55
2022-10-13T19:41:31.335Z,26.57
2022-10-13T19:44:13.965Z,26.59
2022-10-13T19:47:03.355Z,26.56
2022-10-13T19:49:52.350Z,26.57
2022-10-13T19:52:41.410Z,26.47
2022-10-13T19:55:29.722Z,26.40
2022-10-13T19:58:11.414Z,26.36
2022-10-13T20:01:00.738Z,26.34
2022-10-13T20:03:42.360Z,26.31
2022-10-13T20:06:31.831Z,26.32
2022-10-13T20:09:14.394Z,26.34
2022-10-13T20:12:10.341Z,26.35
2022-10-13T20:15:00.628Z,26.21
2022-10-13T20:17:43.373Z,26.11
2022-10-13T20:20:32.798Z,26.03
2022-10-13T20:23:15.341Z,25.87
2022-10-13T20:26:10.199Z,25.74
2022-10-13T20:29:02.907Z,25.74
2022-10-13T20:31:44.609Z,25.75
2022-10-13T20:34:33.401Z,25.71
2022-10-13T20:37:15.738Z,25.62
2022-10-13T20:40:05.466Z,25.59
2022-10-13T20:42:47.692Z,25.56
2022-10-13T20:45:36.433Z,25.55
2022-10-13T20:48:18.684Z,25.50
2022-10-13T20:51:14.449Z,25.45
2022-10-13T20:53:57.708Z,25.45
2022-10-13T20:56:46.438Z,25.42
2022-10-13T20:59:28.660Z,25.36
2022-10-13T21:02:21.359Z,25.33
2022-10-13T21:05:10.250Z,25.29
2022-10-13T21:07:59.345Z,25.26
2022-10-13T21:10:50.257Z,25.25
2022-10-13T21:13:39.365Z,25.23
2022-10-13T21:16:32.658Z,25.27
2022-10-13T21:19:23.345Z,25.49
2022-10-13T21:22:05.610Z,25.67
2022-10-13T21:25:00.347Z,25.71
2022-10-13T21:27:42.523Z,25.74
2022-10-13T21:30:32.689Z,25.77
2022-10-13T21:33:20.664Z,25.84
2022-10-13T21:36:02.413Z,25.79
2022-10-13T21:38:46.058Z,25.86
2022-10-13T21:41:36.402Z,25.84
2022-10-13T21:44:25.347Z,25.82
2022-10-13T21:47:07.704Z,25.75
2022-10-13T21:49:57.332Z,25.76
2022-10-13T21:52:43.619Z,25.67
2022-10-13T21:55:32.331Z,25.73
2022-10-13T21:58:21.262Z,25.72
2022-10-13T22:01:12.344Z,25.72
2022-10-13T22:04:04.242Z,25.64
2022-10-13T22:06:53.416Z,25.57
2022-10-13T22:09:35.609Z,25.50
2022-10-13T22:12:24.400Z,25.47
2022-10-13T22:15:06.635Z,25.39
2022-10-13T22:17:55.363Z,25.36
2022-10-13T22:20:42.654Z,25.28
2022-10-13T22:23:31.330Z,25.46
2022-10-13T22:26:21.640Z,25.40
2022-10-13T22:29:06.466Z,25.32
2022-10-13T22:31:55.643Z,25.28
2022-10-13T22:34:37.631Z,25.28
2022-10-13T22:37:25.768Z,25.31
2022-10-13T22:40:07.327Z,25.30
2022-10-13T22:42:50.509Z,25.33
2022-10-13T22:45:39.365Z,25.27
2022-10-13T22:48:28.324Z,25.21
2022-10-13T22:51:19.362Z,25.09
2022-10-13T22:54:09.412Z,25.15
2022-10-13T22:56:51.642Z,25.06
2022-10-13T22:59:40.324Z,25.20
2022-10-13T23:02:22.663Z,25.16
2022-10-13T23:05:11.331Z,25.16
2022-10-13T23:07:53.636Z,25.12
2022-10-13T23:10:45.413Z,25.16
2022-10-13T23:13:27.661Z,25.14
2022-10-13T23:16:20.376Z,25.12
2022-10-13T23:19:02.682Z,25.02
2022-10-13T23:21:51.412Z,25.08
2022-10-13T23:24:46.209Z,25.05
2022-10-13T23:27:36.336Z,25.09
2022-10-13T23:30:19.664Z,25.08
2022-10-13T23:33:08.401Z,25.11
2022-10-13T23:35:50.618Z,25.05
2022-10-13T23:38:41.324Z,25.06
2022-10-13T23:41:24.642Z,25.08
2022-10-13T23:44:13.397Z,25.04
2022-10-13T23:46:55.615Z,25.01
2022-10-13T23:49:44.411Z,24.96
2022-10-13T23:52:27.638Z,24.93
2022-10-13T23:55:17.397Z,24.93
2022-10-13T23:57:59.866Z,25.00
